KAQW

Harriman-And-West Airport

North Adams, Massachusetts, USA
METAR KAQW 201652Z AUTO 28004KT 9SM -RA FEW025 SCT033 OVC050 10/09 A2963 RMK AO2 RAB34 SLP035 P0001 T01000089
Observed Flight Rules
Oct-20 @ 16:52 UTC (51 minutes ago) Visual Flight Rules
Wind Visibility Clouds Conditions
280° at 4 knots 9 miles
  • Few at 2,500' AGL
  • Scattered at 3,300' AGL
  • Overcast at 5,000' AGL
  • Light Rain
Temperatures Readings Precipitation
Current 10°C / 50°F
Dewpoint 9°C / 48°F
Humidity 94%
Altimeter 29.63" Hg
Pressure 1003.5 hPa
Elevation 199
Current Rain 0.01
METAR KAQW 201652Z AUTO 28004KT 9SM -RA FEW025 SCT033 OVC050 10/09 A2963 RMK AO2 RAB34 SLP035 P0001 T01000089
Observed Flight Rules
Oct-20 @ 16:52 UTC
(51 minutes ago)
VFR
Wind Visibility
280° at 4 knots 9 miles
Clouds
  • Few at 2,500' AGL
  • Scattered at 3,300' AGL
  • Overcast at 5,000' AGL
Conditions
  • Light Rain
Temperature Dewpoint
10°C / 50°F 9°C / 48°F
Humidity Altimeter Pressure
94% 29.63" Hg 1003.5 hPa
Current Rain
0.01